Lynn, MA (01902)

6:20 PM EDT on July 29, 2016 (GMT -0400)
WC1H | | Change Station

Elev 85 ft 42.47 °N, 70.95 °W | Updated 4 seconds ago

Scattered Clouds
Scattered Clouds
78.3 °F
Feels Like 80 °F
N
0.9
Wind Variable Wind from SE
Gusts 7.0 mph

Today
High -- | Low -- °F
--% Chance of Precip.
Yesterday
High -- | Low -- °F
Precip. -- in
Pressure 29.83 in
Visibility 10.0 miles
Clouds Few 2500 ft
Few 8000 ft
Scattered Clouds 20000 ft
Heat Index 80 °F
Dew Point 67 °F
Humidity 68%
Rainfall 0.07 in
Snow Depth Not available.
5:33 AM 8:06 PM
Waning Crescent, 18% visible
METAR KBVY 292153Z 03010KT 10SM FEW025 FEW080 SCT200 26/20 A2984 RMK AO2 SLP100 T02610200
Pressure 29.83 in
Visibility 10.0 miles
Clouds Few 2500 ft
Few 8000 ft
Scattered Clouds 20000 ft
Heat Index 80 °F
Dew Point 67 °F
Humidity 68%
Rainfall 0.07 in
Snow Depth Not available.
5:33 AM 8:06 PM
Waning Crescent, 18% visible
METAR KBVY 292153Z 03010KT 10SM FEW025 FEW080 SCT200 26/20 A2984 RMK AO2 SLP100 T02610200

10-Day Weather Forecast

Almanac

Astronomy

Jul. 29, 2016 Rise Set
Actual Time
Civil Twilight
Nautical Twilight
Astronomical Twilight
Moon
Length of Visible Light
Length of Day
Tomorrow will be .
, % of the Moon is Illuminated

Today's Extremes

State Highs State Lows

Community

WunderPhotos

Upload Photos

1,928,429 photos uploaded!

WunderBlog® & News

Nearby

Air Quality

  Air Quality AQ Index Pollutant
Not available.

Snow Depth

Station Depth Elevation

Earthquake Activity

City Distance Mag. Time & Date
Minimum magnitude displayed is 2.5.

Coastal Water Temperatures

Place Temperature

Stations

Nearby Weather Stations

Station Location Temp. Windchill Dew Point Humidity Wind Precip. Elev Updated Type
                   

Watches & Warnings

There are currently no watches in effect.